sensor_id;sensor_type;location;lat;lon;timestamp;noise_LAeq;noise_LA_min;noise_LA_max;noise_LA01;noise_LA95
64545;Laerm;50936;51.660;5.616;2022-12-18T00:01:33;52.79;43.86;66.51;;
64545;Laerm;50936;51.660;5.616;2022-12-18T00:04:04;56.32;43.58;71.94;;
64545;Laerm;50936;51.660;5.616;2022-12-18T00:06:32;55.85;44.31;66.98;;
64545;Laerm;50936;51.660;5.616;2022-12-18T00:09:01;58.40;44.19;73.11;;
64545;Laerm;50936;51.660;5.616;2022-12-18T00:11:30;59.26;43.14;70.52;;
64545;Laerm;50936;51.660;5.616;2022-12-18T00:13:59;58.76;44.47;72.17;;
64545;Laerm;50936;51.660;5.616;2022-12-18T00:16:28;54.93;43.34;67.25;;
64545;Laerm;50936;51.660;5.616;2022-12-18T00:18:59;56.47;44.03;68.64;;
64545;Laerm;50936;51.660;5.616;2022-12-18T00:21:29;57.10;43.34;67.83;;
64545;Laerm;50936;51.660;5.616;2022-12-18T00:23:57;55.88;43.81;70.30;;
64545;Laerm;50936;51.660;5.616;2022-12-18T00:26:32;57.09;43.44;79.83;;
64545;Laerm;50936;51.660;5.616;2022-12-18T00:29:12;56.60;43.04;72.28;;
64545;Laerm;50936;51.660;5.616;2022-12-18T00:31:42;58.85;43.19;73.79;;
64545;Laerm;50936;51.660;5.616;2022-12-18T00:34:12;54.69;43.90;67.31;;
64545;Laerm;50936;51.660;5.616;2022-12-18T00:36:40;56.14;44.03;72.54;;
64545;Laerm;50936;51.660;5.616;2022-12-18T00:39:09;56.25;42.88;71.23;;
64545;Laerm;50936;51.660;5.616;2022-12-18T00:41:36;55.28;42.47;69.31;;
64545;Laerm;50936;51.660;5.616;2022-12-18T00:44:21;58.49;42.53;72.72;;
64545;Laerm;50936;51.660;5.616;2022-12-18T00:46:50;50.68;42.22;65.14;;
64545;Laerm;50936;51.660;5.616;2022-12-18T00:49:19;53.80;41.75;67.68;;
64545;Laerm;50936;51.660;5.616;2022-12-18T00:51:47;56.33;42.35;68.52;;
64545;Laerm;50936;51.660;5.616;2022-12-18T00:54:16;54.24;42.88;67.88;;
64545;Laerm;50936;51.660;5.616;2022-12-18T00:56:43;55.60;43.58;67.37;;
64545;Laerm;50936;51.660;5.616;2022-12-18T00:59:18;53.01;41.14;69.32;;
64545;Laerm;50936;51.660;5.616;2022-12-18T01:01:46;47.95;41.68;57.05;;
64545;Laerm;50936;51.660;5.616;2022-12-18T01:04:14;45.92;41.82;55.77;;
64545;Laerm;50936;51.660;5.616;2022-12-18T01:06:44;65.87;41.53;88.20;;
64545;Laerm;50936;51.660;5.616;2022-12-18T01:09:12;56.00;42.71;71.52;;
64545;Laerm;50936;51.660;5.616;2022-12-18T01:11:39;58.12;42.29;75.99;;
64545;Laerm;50936;51.660;5.616;2022-12-18T01:14:06;55.36;42.76;68.45;;
64545;Laerm;50936;51.660;5.616;2022-12-18T01:16:33;51.12;41.75;66.82;;
64545;Laerm;50936;51.660;5.616;2022-12-18T01:19:00;46.62;41.53;67.83;;
64545;Laerm;50936;51.660;5.616;2022-12-18T01:21:27;50.74;41.30;68.29;;
64545;Laerm;50936;51.660;5.616;2022-12-18T01:23:56;57.02;43.09;70.27;;
64545;Laerm;50936;51.660;5.616;2022-12-18T01:26:25;53.95;41.68;66.43;;
64545;Laerm;50936;51.660;5.616;2022-12-18T01:28:54;54.26;41.06;67.62;;
64545;Laerm;50936;51.660;5.616;2022-12-18T01:31:28;54.31;41.38;67.03;;
64545;Laerm;50936;51.660;5.616;2022-12-18T01:33:56;55.01;41.30;70.66;;
64545;Laerm;50936;51.660;5.616;2022-12-18T01:36:26;56.76;41.82;69.00;;
64545;Laerm;50936;51.660;5.616;2022-12-18T01:38:54;52.15;42.19;67.63;;
64545;Laerm;50936;51.660;5.616;2022-12-18T01:41:26;56.96;42.09;74.10;;
64545;Laerm;50936;51.660;5.616;2022-12-18T01:45:02;52.14;41.06;67.99;;
64545;Laerm;50936;51.660;5.616;2022-12-18T01:48:10;52.21;41.82;73.56;;
64545;Laerm;50936;51.660;5.616;2022-12-18T01:50:41;51.60;41.38;65.87;;
64545;Laerm;50936;51.660;5.616;2022-12-18T01:53:23;53.06;41.14;73.88;;
64545;Laerm;50936;51.660;5.616;2022-12-18T01:55:56;49.60;41.14;64.65;;
64545;Laerm;50936;51.660;5.616;2022-12-18T01:58:39;53.73;41.14;67.69;;
64545;Laerm;50936;51.660;5.616;2022-12-18T02:01:08;46.33;41.22;56.71;;
64545;Laerm;50936;51.660;5.616;2022-12-18T02:03:36;53.49;41.68;67.22;;
64545;Laerm;50936;51.660;5.616;2022-12-18T02:06:15;44.11;41.11;58.58;;
64545;Laerm;50936;51.660;5.616;2022-12-18T02:12:16;50.94;41.38;66.47;;
64545;Laerm;50936;51.660;5.616;2022-12-18T02:15:10;56.11;41.38;69.25;;
64545;Laerm;50936;51.660;5.616;2022-12-18T02:17:59;53.72;41.96;67.16;;
64545;Laerm;50936;51.660;5.616;2022-12-18T02:20:45;56.32;42.22;70.25;;
64545;Laerm;50936;51.660;5.616;2022-12-18T02:24:06;45.32;40.80;59.85;;
64545;Laerm;50936;51.660;5.616;2022-12-18T02:26:50;51.10;41.03;64.78;;
64545;Laerm;50936;51.660;5.616;2022-12-18T02:29:35;51.28;40.53;66.47;;
64545;Laerm;50936;51.660;5.616;2022-12-18T02:32:13;44.53;40.98;53.69;;
64545;Laerm;50936;51.660;5.616;2022-12-18T02:34:43;50.84;40.71;66.73;;
64545;Laerm;50936;51.660;5.616;2022-12-18T02:37:18;44.00;41.06;54.58;;
64545;Laerm;50936;51.660;5.616;2022-12-18T02:39:49;52.78;41.38;66.84;;
64545;Laerm;50936;51.660;5.616;2022-12-18T02:42:20;53.39;41.14;65.98;;
64545;Laerm;50936;51.660;5.616;2022-12-18T02:44:51;45.13;41.06;54.79;;
64545;Laerm;50936;51.660;5.616;2022-12-18T02:47:31;51.26;41.14;68.08;;
64545;Laerm;50936;51.660;5.616;2022-12-18T02:50:41;53.00;40.23;70.66;;
64545;Laerm;50936;51.660;5.616;2022-12-18T02:53:28;54.57;40.80;69.18;;
64545;Laerm;50936;51.660;5.616;2022-12-18T02:56:11;54.68;41.06;70.10;;
64545;Laerm;50936;51.660;5.616;2022-12-18T02:59:09;53.11;41.06;76.83;;
64545;Laerm;50936;51.660;5.616;2022-12-18T03:02:04;52.02;41.06;68.18;;
64545;Laerm;50936;51.660;5.616;2022-12-18T03:05:07;42.84;41.06;54.16;;
64545;Laerm;50936;51.660;5.616;2022-12-18T03:07:49;52.08;40.53;70.26;;
64545;Laerm;50936;51.660;5.616;2022-12-18T03:10:27;52.85;40.80;79.44;;
64545;Laerm;50936;51.660;5.616;2022-12-18T03:13:04;52.06;41.22;65.76;;
64545;Laerm;50936;51.660;5.616;2022-12-18T03:15:43;45.69;40.89;65.73;;
64545;Laerm;50936;51.660;5.616;2022-12-18T03:18:24;50.86;41.30;69.76;;
64545;Laerm;50936;51.660;5.616;2022-12-18T03:20:59;54.44;40.80;68.62;;
64545;Laerm;50936;51.660;5.616;2022-12-18T03:26:18;54.14;41.53;70.95;;
64545;Laerm;50936;51.660;5.616;2022-12-18T03:29:07;50.69;40.98;65.66;;
64545;Laerm;50936;51.660;5.616;2022-12-18T03:31:40;52.50;41.30;66.35;;
64545;Laerm;50936;51.660;5.616;2022-12-18T03:34:17;53.41;41.75;76.70;;
64545;Laerm;50936;51.660;5.616;2022-12-18T03:36:47;52.85;41.22;68.56;;
64545;Laerm;50936;51.660;5.616;2022-12-18T03:39:14;52.89;40.89;69.35;;
64545;Laerm;50936;51.660;5.616;2022-12-18T03:41:51;47.62;40.53;61.15;;
64545;Laerm;50936;51.660;5.616;2022-12-18T03:47:37;60.69;40.71;80.39;;
64545;Laerm;50936;51.660;5.616;2022-12-18T03:50:21;55.30;40.98;70.53;;
64545;Laerm;50936;51.660;5.616;2022-12-18T03:55:32;51.99;40.98;68.24;;
64545;Laerm;50936;51.660;5.616;2022-12-18T03:58:06;47.18;39.81;61.42;;
64545;Laerm;50936;51.660;5.616;2022-12-18T04:00:50;42.82;40.53;53.25;;
64545;Laerm;50936;51.660;5.616;2022-12-18T04:03:20;42.94;40.03;64.04;;
64545;Laerm;50936;51.660;5.616;2022-12-18T04:05:55;43.46;40.43;56.09;;
64545;Laerm;50936;51.660;5.616;2022-12-18T04:08:24;45.28;40.53;56.48;;
64545;Laerm;50936;51.660;5.616;2022-12-18T04:11:01;43.48;40.33;52.59;;
64545;Laerm;50936;51.660;5.616;2022-12-18T04:13:34;44.32;40.13;56.97;;
64545;Laerm;50936;51.660;5.616;2022-12-18T04:16:06;42.83;40.23;56.36;;
64545;Laerm;50936;51.660;5.616;2022-12-18T04:18:34;42.86;40.13;48.96;;
64545;Laerm;50936;51.660;5.616;2022-12-18T04:21:02;42.93;40.13;47.70;;
64545;Laerm;50936;51.660;5.616;2022-12-18T04:23:29;48.13;41.30;63.47;;
64545;Laerm;50936;51.660;5.616;2022-12-18T04:25:58;53.67;41.46;66.40;;
64545;Laerm;50936;51.660;5.616;2022-12-18T04:28:45;44.23;41.06;65.35;;
64545;Laerm;50936;51.660;5.616;2022-12-18T04:31:12;46.66;40.13;56.75;;
64545;Laerm;50936;51.660;5.616;2022-12-18T04:33:39;53.89;39.92;69.97;;
64545;Laerm;50936;51.660;5.616;2022-12-18T04:36:07;49.18;41.22;64.16;;
64545;Laerm;50936;51.660;5.616;2022-12-18T04:38:34;44.40;40.62;53.49;;
64545;Laerm;50936;51.660;5.616;2022-12-18T04:41:06;43.98;40.13;63.16;;
64545;Laerm;50936;51.660;5.616;2022-12-18T04:43:35;43.16;40.71;54.98;;
64545;Laerm;50936;51.660;5.616;2022-12-18T04:46:05;47.47;40.80;68.68;;
64545;Laerm;50936;51.660;5.616;2022-12-18T04:48:33;44.27;40.33;53.20;;
64545;Laerm;50936;51.660;5.616;2022-12-18T04:51:02;49.21;40.43;64.72;;
64545;Laerm;50936;51.660;5.616;2022-12-18T04:56:07;43.81;39.92;53.74;;
64545;Laerm;50936;51.660;5.616;2022-12-18T04:58:36;50.30;40.53;63.50;;
64545;Laerm;50936;51.660;5.616;2022-12-18T05:01:04;44.76;40.33;54.65;;
64545;Laerm;50936;51.660;5.616;2022-12-18T05:03:31;50.53;39.92;70.11;;
64545;Laerm;50936;51.660;5.616;2022-12-18T05:05:59;42.77;40.33;48.00;;
64545;Laerm;50936;51.660;5.616;2022-12-18T05:08:26;43.03;40.98;47.61;;
64545;Laerm;50936;51.660;5.616;2022-12-18T05:11:01;43.55;40.62;49.96;;
64545;Laerm;50936;51.660;5.616;2022-12-18T05:13:29;43.65;40.89;51.72;;
64545;Laerm;50936;51.660;5.616;2022-12-18T05:15:56;53.15;40.71;68.85;;
64545;Laerm;50936;51.660;5.616;2022-12-18T05:18:24;47.78;41.06;60.19;;
64545;Laerm;50936;51.660;5.616;2022-12-18T05:20:52;42.67;40.43;45.60;;
64545;Laerm;50936;51.660;5.616;2022-12-18T05:23:22;55.79;41.38;71.68;;
64545;Laerm;50936;51.660;5.616;2022-12-18T05:25:53;43.31;41.38;45.97;;
64545;Laerm;50936;51.660;5.616;2022-12-18T05:28:21;55.97;41.46;70.12;;
64545;Laerm;50936;51.660;5.616;2022-12-18T05:30:54;52.84;40.98;70.55;;
64545;Laerm;50936;51.660;5.616;2022-12-18T05:33:26;43.02;41.22;48.03;;
64545;Laerm;50936;51.660;5.616;2022-12-18T05:35:59;43.35;41.46;51.69;;
64545;Laerm;50936;51.660;5.616;2022-12-18T05:38:28;53.20;42.09;70.06;;
64545;Laerm;50936;51.660;5.616;2022-12-18T05:40:56;50.82;41.38;64.77;;
64545;Laerm;50936;51.660;5.616;2022-12-18T05:43:26;52.68;41.30;66.40;;
64545;Laerm;50936;51.660;5.616;2022-12-18T05:45:54;50.44;41.53;66.20;;
64545;Laerm;50936;51.660;5.616;2022-12-18T05:48:21;55.11;41.14;66.67;;
64545;Laerm;50936;51.660;5.616;2022-12-18T05:50:50;52.98;41.75;70.92;;
64545;Laerm;50936;51.660;5.616;2022-12-18T05:53:19;53.08;41.06;66.73;;
64545;Laerm;50936;51.660;5.616;2022-12-18T05:55:47;46.71;40.89;65.80;;
64545;Laerm;50936;51.660;5.616;2022-12-18T05:58:14;47.01;40.98;59.57;;
64545;Laerm;50936;51.660;5.616;2022-12-18T06:00:44;53.59;41.82;66.32;;
64545;Laerm;50936;51.660;5.616;2022-12-18T06:03:13;48.94;41.22;62.83;;
64545;Laerm;50936;51.660;5.616;2022-12-18T06:05:43;43.28;41.14;49.18;;
64545;Laerm;50936;51.660;5.616;2022-12-18T06:08:12;51.83;40.80;66.12;;
64545;Laerm;50936;51.660;5.616;2022-12-18T06:10:41;50.33;40.79;65.64;;
64545;Laerm;50936;51.660;5.616;2022-12-18T06:13:08;54.69;41.89;69.98;;
64545;Laerm;50936;51.660;5.616;2022-12-18T06:15:38;56.86;40.71;71.60;;
64545;Laerm;50936;51.660;5.616;2022-12-18T06:18:05;55.86;42.47;70.18;;
64545;Laerm;50936;51.660;5.616;2022-12-18T06:20:32;54.99;42.22;68.15;;
64545;Laerm;50936;51.660;5.616;2022-12-18T06:22:59;52.73;41.46;67.07;;
64545;Laerm;50936;51.660;5.616;2022-12-18T06:25:26;51.72;41.22;65.95;;
64545;Laerm;50936;51.660;5.616;2022-12-18T06:27:53;56.74;41.96;78.09;;
64545;Laerm;50936;51.660;5.616;2022-12-18T06:30:20;52.76;41.06;66.11;;
64545;Laerm;50936;51.660;5.616;2022-12-18T06:32:51;48.36;40.80;78.93;;
64545;Laerm;50936;51.660;5.616;2022-12-18T06:35:23;54.59;41.30;70.97;;
64545;Laerm;50936;51.660;5.616;2022-12-18T06:37:50;51.34;41.68;66.38;;
64545;Laerm;50936;51.660;5.616;2022-12-18T06:40:18;52.59;42.09;65.82;;
64545;Laerm;50936;51.660;5.616;2022-12-18T06:42:44;50.16;41.46;64.96;;
64545;Laerm;50936;51.660;5.616;2022-12-18T06:45:11;52.92;41.75;64.53;;
64545;Laerm;50936;51.660;5.616;2022-12-18T06:47:38;54.28;41.46;71.11;;
64545;Laerm;50936;51.660;5.616;2022-12-18T06:50:05;52.83;41.38;68.88;;
64545;Laerm;50936;51.660;5.616;2022-12-18T06:52:33;47.09;41.82;60.79;;
64545;Laerm;50936;51.660;5.616;2022-12-18T06:55:00;56.84;41.82;71.68;;
64545;Laerm;50936;51.660;5.616;2022-12-18T06:57:27;44.62;41.06;56.48;;
64545;Laerm;50936;51.660;5.616;2022-12-18T06:59:54;54.93;41.14;69.34;;
64545;Laerm;50936;51.660;5.616;2022-12-18T07:02:20;57.19;42.53;68.55;;
64545;Laerm;50936;51.660;5.616;2022-12-18T07:04:50;43.94;40.80;57.11;;
64545;Laerm;50936;51.660;5.616;2022-12-18T07:07:17;53.17;41.14;66.06;;
64545;Laerm;50936;51.660;5.616;2022-12-18T07:09:44;51.73;41.22;65.67;;
64545;Laerm;50936;51.660;5.616;2022-12-18T07:12:11;51.73;41.06;66.73;;
64545;Laerm;50936;51.660;5.616;2022-12-18T07:14:38;53.15;41.06;65.32;;
64545;Laerm;50936;51.660;5.616;2022-12-18T07:17:04;52.82;40.98;68.53;;
64545;Laerm;50936;51.660;5.616;2022-12-18T07:19:32;46.14;41.30;61.10;;
64545;Laerm;50936;51.660;5.616;2022-12-18T07:22:00;53.55;42.29;64.95;;
64545;Laerm;50936;51.660;5.616;2022-12-18T07:24:27;54.48;42.09;67.54;;
64545;Laerm;50936;51.660;5.616;2022-12-18T07:26:54;49.36;41.82;65.31;;
64545;Laerm;50936;51.660;5.616;2022-12-18T07:29:21;59.14;42.65;70.39;;
64545;Laerm;50936;51.660;5.616;2022-12-18T07:31:47;58.22;42.88;75.89;;
64545;Laerm;50936;51.660;5.616;2022-12-18T07:34:14;55.01;42.98;68.43;;
64545;Laerm;50936;51.660;5.616;2022-12-18T07:36:42;56.40;42.65;69.33;;
64545;Laerm;50936;51.660;5.616;2022-12-18T07:39:11;54.27;42.64;68.24;;
64545;Laerm;50936;51.660;5.616;2022-12-18T07:41:38;58.96;43.29;71.13;;
64545;Laerm;50936;51.660;5.616;2022-12-18T07:44:15;60.26;43.39;73.52;;
64545;Laerm;50936;51.660;5.616;2022-12-18T07:46:41;60.08;43.44;72.06;;
64545;Laerm;50936;51.660;5.616;2022-12-18T07:49:08;60.30;45.11;69.34;;
64545;Laerm;50936;51.660;5.616;2022-12-18T07:51:35;58.24;44.38;69.32;;
64545;Laerm;50936;51.660;5.616;2022-12-18T07:54:02;57.64;44.73;71.46;;
64545;Laerm;50936;51.660;5.616;2022-12-18T07:56:28;57.69;43.39;70.29;;
64545;Laerm;50936;51.660;5.616;2022-12-18T07:58:58;58.04;43.72;67.69;;
64545;Laerm;50936;51.660;5.616;2022-12-18T08:01:26;58.07;42.59;70.81;;
64545;Laerm;50936;51.660;5.616;2022-12-18T08:03:53;56.74;44.19;71.25;;
64545;Laerm;50936;51.660;5.616;2022-12-18T08:06:20;59.45;42.22;71.21;;
64545;Laerm;50936;51.660;5.616;2022-12-18T08:08:52;59.95;44.39;71.01;;
64545;Laerm;50936;51.660;5.616;2022-12-18T08:11:20;60.79;44.35;75.96;;
64545;Laerm;50936;51.660;5.616;2022-12-18T08:13:47;61.64;46.33;70.91;;
64545;Laerm;50936;51.660;5.616;2022-12-18T08:16:15;58.11;44.39;72.37;;
64545;Laerm;50936;51.660;5.616;2022-12-18T08:18:42;62.46;47.98;74.14;;
64545;Laerm;50936;51.660;5.616;2022-12-18T08:21:14;62.96;44.43;74.24;;
64545;Laerm;50936;51.660;5.616;2022-12-18T08:23:42;62.21;44.94;71.61;;
64545;Laerm;50936;51.660;5.616;2022-12-18T08:26:11;62.47;46.07;73.62;;
64545;Laerm;50936;51.660;5.616;2022-12-18T08:28:38;60.62;45.42;70.85;;
64545;Laerm;50936;51.660;5.616;2022-12-18T08:31:06;61.63;45.57;78.09;;
64545;Laerm;50936;51.660;5.616;2022-12-18T08:33:35;57.00;43.54;69.07;;
64545;Laerm;50936;51.660;5.616;2022-12-18T08:36:03;58.83;44.94;70.82;;
64545;Laerm;50936;51.660;5.616;2022-12-18T08:38:32;60.62;44.03;73.77;;
64545;Laerm;50936;51.660;5.616;2022-12-18T08:41:08;60.78;45.30;70.23;;
64545;Laerm;50936;51.660;5.616;2022-12-18T08:43:36;61.82;45.11;76.16;;
64545;Laerm;50936;51.660;5.616;2022-12-18T08:46:22;62.93;48.66;83.80;;
64545;Laerm;50936;51.660;5.616;2022-12-18T08:48:52;60.61;46.87;70.85;;
64545;Laerm;50936;51.660;5.616;2022-12-18T08:51:19;61.62;44.19;72.22;;
64545;Laerm;50936;51.660;5.616;2022-12-18T08:53:47;61.22;48.61;79.10;;
64545;Laerm;50936;51.660;5.616;2022-12-18T08:56:14;63.13;49.43;76.53;;
64545;Laerm;50936;51.660;5.616;2022-12-18T08:58:42;62.93;50.88;71.35;;
64545;Laerm;50936;51.660;5.616;2022-12-18T09:01:11;60.70;46.38;73.08;;
64545;Laerm;50936;51.660;5.616;2022-12-18T09:03:39;61.50;48.20;70.80;;
64545;Laerm;50936;51.660;5.616;2022-12-18T09:06:07;61.75;46.80;77.09;;
64545;Laerm;50936;51.660;5.616;2022-12-18T09:08:34;62.25;50.38;73.82;;
64545;Laerm;50936;51.660;5.616;2022-12-18T09:11:02;61.95;47.79;71.45;;
64545;Laerm;50936;51.660;5.616;2022-12-18T09:13:29;63.53;48.20;74.26;;
64545;Laerm;50936;51.660;5.616;2022-12-18T09:15:56;63.94;51.39;76.99;;
64545;Laerm;50936;51.660;5.616;2022-12-18T09:18:24;61.99;47.81;70.98;;
64545;Laerm;50936;51.660;5.616;2022-12-18T09:20:51;64.56;52.31;72.58;;
64545;Laerm;50936;51.660;5.616;2022-12-18T09:23:20;64.12;53.60;73.43;;
64545;Laerm;50936;51.660;5.616;2022-12-18T09:25:47;64.17;48.92;83.65;;
64545;Laerm;50936;51.660;5.616;2022-12-18T09:28:17;65.73;52.54;80.27;;
64545;Laerm;50936;51.660;5.616;2022-12-18T09:30:48;64.49;51.84;84.62;;
64545;Laerm;50936;51.660;5.616;2022-12-18T09:33:16;63.12;50.31;74.53;;
64545;Laerm;50936;51.660;5.616;2022-12-18T09:35:45;61.65;50.15;71.51;;
64545;Laerm;50936;51.660;5.616;2022-12-18T09:38:16;61.62;46.82;71.58;;
64545;Laerm;50936;51.660;5.616;2022-12-18T09:43:40;60.69;44.94;73.01;;
64545;Laerm;50936;51.660;5.616;2022-12-18T09:46:15;61.80;47.42;76.03;;
64545;Laerm;50936;51.660;5.616;2022-12-18T09:48:52;61.42;47.46;70.04;;
64545;Laerm;50936;51.660;5.616;2022-12-18T09:51:28;62.53;47.04;72.11;;
64545;Laerm;50936;51.660;5.616;2022-12-18T09:54:50;63.43;51.21;71.76;;
64545;Laerm;50936;51.660;5.616;2022-12-18T09:57:21;65.21;51.93;77.59;;
64545;Laerm;50936;51.660;5.616;2022-12-18T10:00:02;64.53;52.66;73.98;;
64545;Laerm;50936;51.660;5.616;2022-12-18T10:02:37;62.71;49.29;79.21;;
64545;Laerm;50936;51.660;5.616;2022-12-18T10:08:12;63.67;48.96;73.76;;
64545;Laerm;50936;51.660;5.616;2022-12-18T10:10:51;64.16;48.49;72.13;;
64545;Laerm;50936;51.660;5.616;2022-12-18T10:13:45;62.28;49.75;71.28;;
64545;Laerm;50936;51.660;5.616;2022-12-18T10:19:46;64.32;52.99;74.77;;
64545;Laerm;50936;51.660;5.616;2022-12-18T10:25:26;63.29;52.90;71.31;;
64545;Laerm;50936;51.660;5.616;2022-12-18T10:28:00;64.36;51.82;72.70;;
64545;Laerm;50936;51.660;5.616;2022-12-18T10:30:34;62.91;49.07;71.74;;
64545;Laerm;50936;51.660;5.616;2022-12-18T10:33:02;63.76;51.53;78.86;;
64545;Laerm;50936;51.660;5.616;2022-12-18T10:35:29;64.99;50.92;75.10;;
64545;Laerm;50936;51.660;5.616;2022-12-18T10:38:29;63.94;49.73;71.92;;
64545;Laerm;50936;51.660;5.616;2022-12-18T10:41:25;63.80;52.36;76.24;;
64545;Laerm;50936;51.660;5.616;2022-12-18T10:46:51;64.28;52.58;73.42;;
64545;Laerm;50936;51.660;5.616;2022-12-18T10:49:27;64.34;56.78;71.07;;
64545;Laerm;50936;51.660;5.616;2022-12-18T10:52:17;64.07;54.90;75.28;;
64545;Laerm;50936;51.660;5.616;2022-12-18T10:54:52;65.30;51.97;75.08;;
64545;Laerm;50936;51.660;5.616;2022-12-18T10:59:55;64.49;50.59;74.97;;
64545;Laerm;50936;51.660;5.616;2022-12-18T11:02:37;62.56;50.47;74.18;;
64545;Laerm;50936;51.660;5.616;2022-12-18T11:05:33;65.04;54.20;79.94;;
64545;Laerm;50936;51.660;5.616;2022-12-18T11:08:01;65.51;52.80;74.92;;
64545;Laerm;50936;51.660;5.616;2022-12-18T11:10:37;64.31;50.82;79.44;;
64545;Laerm;50936;51.660;5.616;2022-12-18T11:13:22;63.89;54.09;71.17;;
64545;Laerm;50936;51.660;5.616;2022-12-18T11:15:50;64.73;52.68;72.31;;
64545;Laerm;50936;51.660;5.616;2022-12-18T11:18:26;64.54;54.03;80.60;;
64545;Laerm;50936;51.660;5.616;2022-12-18T11:21:07;64.79;51.82;73.34;;
64545;Laerm;50936;51.660;5.616;2022-12-18T11:23:36;64.07;55.22;72.66;;
64545;Laerm;50936;51.660;5.616;2022-12-18T11:26:05;64.74;54.81;76.60;;
64545;Laerm;50936;51.660;5.616;2022-12-18T11:29:07;65.61;53.51;79.11;;
64545;Laerm;50936;51.660;5.616;2022-12-18T11:31:34;64.21;54.36;82.50;;
64545;Laerm;50936;51.660;5.616;2022-12-18T11:36:59;64.50;52.88;79.72;;
64545;Laerm;50936;51.660;5.616;2022-12-18T11:39:49;64.09;51.32;79.94;;
64545;Laerm;50936;51.660;5.616;2022-12-18T11:42:37;64.22;52.31;73.16;;
64545;Laerm;50936;51.660;5.616;2022-12-18T11:47:45;64.61;52.63;71.91;;
64545;Laerm;50936;51.660;5.616;2022-12-18T11:50:21;64.69;53.53;77.52;;
64545;Laerm;50936;51.660;5.616;2022-12-18T11:52:50;64.54;57.66;72.51;;
64545;Laerm;50936;51.660;5.616;2022-12-18T11:58:46;63.75;53.30;78.88;;
64545;Laerm;50936;51.660;5.616;2022-12-18T12:01:50;66.02;53.69;80.86;;
64545;Laerm;50936;51.660;5.616;2022-12-18T12:07:21;65.10;54.30;83.72;;
64545;Laerm;50936;51.660;5.616;2022-12-18T12:40:35;65.20;52.78;76.00;;
64545;Laerm;50936;51.660;5.616;2022-12-18T12:43:40;65.64;56.02;72.14;;
64545;Laerm;50936;51.660;5.616;2022-12-18T12:46:19;64.02;55.29;75.84;;
64545;Laerm;50936;51.660;5.616;2022-12-18T12:49:04;64.83;55.51;77.71;;
64545;Laerm;50936;51.660;5.616;2022-12-18T12:51:40;64.61;55.01;73.15;;
64545;Laerm;50936;51.660;5.616;2022-12-18T12:54:24;63.70;54.46;78.64;;
64545;Laerm;50936;51.660;5.616;2022-12-18T12:57:19;64.73;57.09;78.30;;
64545;Laerm;50936;51.660;5.616;2022-12-18T13:08:06;65.92;54.24;77.73;;
64545;Laerm;50936;51.660;5.616;2022-12-18T13:10:43;64.03;55.67;80.03;;
64545;Laerm;50936;51.660;5.616;2022-12-18T13:13:13;64.72;54.85;79.20;;
64545;Laerm;50936;51.660;5.616;2022-12-18T13:16:07;64.22;55.73;74.42;;
64545;Laerm;50936;51.660;5.616;2022-12-18T13:18:35;64.26;55.78;71.54;;
64545;Laerm;50936;51.660;5.616;2022-12-18T13:21:20;65.52;55.19;76.75;;
64545;Laerm;50936;51.660;5.616;2022-12-18T13:23:50;65.19;56.48;74.51;;
64545;Laerm;50936;51.660;5.616;2022-12-18T13:28:55;65.07;56.87;79.63;;
64545;Laerm;50936;51.660;5.616;2022-12-18T13:34:22;63.99;55.78;78.49;;
64545;Laerm;50936;51.660;5.616;2022-12-18T13:36:57;63.23;53.85;75.72;;
64545;Laerm;50936;51.660;5.616;2022-12-18T13:39:43;64.94;54.52;80.51;;
64545;Laerm;50936;51.660;5.616;2022-12-18T13:45:44;64.42;55.22;76.34;;
64545;Laerm;50936;51.660;5.616;2022-12-18T13:48:24;64.18;54.46;71.77;;
64545;Laerm;50936;51.660;5.616;2022-12-18T13:51:08;63.11;52.72;73.32;;
64545;Laerm;50936;51.660;5.616;2022-12-18T13:53:48;71.10;52.46;90.57;;
64545;Laerm;50936;51.660;5.616;2022-12-18T13:56:28;64.85;55.52;81.58;;
64545;Laerm;50936;51.660;5.616;2022-12-18T13:59:21;68.44;52.57;89.37;;
64545;Laerm;50936;51.660;5.616;2022-12-18T14:01:58;62.92;52.71;69.56;;
64545;Laerm;50936;51.660;5.616;2022-12-18T14:04:33;65.22;54.67;76.21;;
64545;Laerm;50936;51.660;5.616;2022-12-18T14:07:11;65.03;56.25;81.03;;
64545;Laerm;50936;51.660;5.616;2022-12-18T14:09:49;63.57;53.08;73.11;;
64545;Laerm;50936;51.660;5.616;2022-12-18T14:12:24;66.95;58.68;86.46;;
64545;Laerm;50936;51.660;5.616;2022-12-18T14:18:00;64.22;53.15;71.05;;
64545;Laerm;50936;51.660;5.616;2022-12-18T14:20:32;64.12;54.99;76.00;;
64545;Laerm;50936;51.660;5.616;2022-12-18T14:22:59;71.71;55.91;94.90;;
64545;Laerm;50936;51.660;5.616;2022-12-18T14:25:29;64.39;55.18;77.12;;
64545;Laerm;50936;51.660;5.616;2022-12-18T14:28:12;66.04;54.81;79.97;;
64545;Laerm;50936;51.660;5.616;2022-12-18T14:30:45;64.65;55.74;74.17;;
64545;Laerm;50936;51.660;5.616;2022-12-18T14:33:22;64.14;55.18;79.10;;
64545;Laerm;50936;51.660;5.616;2022-12-18T14:36:16;64.32;54.40;76.73;;
64545;Laerm;50936;51.660;5.616;2022-12-18T14:38:52;63.71;56.49;73.60;;
64545;Laerm;50936;51.660;5.616;2022-12-18T14:41:21;64.67;51.30;81.56;;
64545;Laerm;50936;51.660;5.616;2022-12-18T14:43:52;64.78;55.71;78.42;;
64545;Laerm;50936;51.660;5.616;2022-12-18T14:46:35;65.03;55.46;76.89;;
64545;Laerm;50936;51.660;5.616;2022-12-18T14:49:28;63.76;55.41;72.52;;
64545;Laerm;50936;51.660;5.616;2022-12-18T14:51:59;65.32;56.05;81.67;;
64545;Laerm;50936;51.660;5.616;2022-12-18T14:54:28;64.33;54.58;75.57;;
64545;Laerm;50936;51.660;5.616;2022-12-18T14:57:15;64.94;53.57;78.62;;
64545;Laerm;50936;51.660;5.616;2022-12-18T14:59:42;64.25;54.62;74.52;;
64545;Laerm;50936;51.660;5.616;2022-12-18T15:02:22;62.97;53.21;80.21;;
64545;Laerm;50936;51.660;5.616;2022-12-18T15:07:45;64.44;56.04;70.98;;
64545;Laerm;50936;51.660;5.616;2022-12-18T15:10:15;63.62;51.75;71.52;;
64545;Laerm;50936;51.660;5.616;2022-12-18T15:18:03;63.14;53.92;72.44;;
64545;Laerm;50936;51.660;5.616;2022-12-18T15:20:32;63.17;51.67;78.96;;
64545;Laerm;50936;51.660;5.616;2022-12-18T15:22:59;62.39;50.93;69.62;;
64545;Laerm;50936;51.660;5.616;2022-12-18T15:25:34;64.16;52.66;71.61;;
64545;Laerm;50936;51.660;5.616;2022-12-18T15:28:19;64.06;51.89;79.17;;
64545;Laerm;50936;51.660;5.616;2022-12-18T15:36:23;63.32;48.12;88.34;;
64545;Laerm;50936;51.660;5.616;2022-12-18T15:38:54;63.62;53.20;73.04;;
64545;Laerm;50936;51.660;5.616;2022-12-18T15:41:34;64.68;52.33;76.64;;
64545;Laerm;50936;51.660;5.616;2022-12-18T15:44:22;65.97;49.57;87.47;;
64545;Laerm;50936;51.660;5.616;2022-12-18T15:46:49;64.98;54.38;80.59;;
64545;Laerm;50936;51.660;5.616;2022-12-18T15:49:16;63.51;48.01;75.11;;
64545;Laerm;50936;51.660;5.616;2022-12-18T15:51:43;64.26;52.00;80.69;;
64545;Laerm;50936;51.660;5.616;2022-12-18T15:54:14;61.94;50.83;73.94;;
64545;Laerm;50936;51.660;5.616;2022-12-18T15:56:42;63.72;50.80;78.24;;
64545;Laerm;50936;51.660;5.616;2022-12-18T15:59:27;62.20;50.14;69.61;;
64545;Laerm;50936;51.660;5.616;2022-12-18T16:01:56;62.23;52.46;69.91;;
64545;Laerm;50936;51.660;5.616;2022-12-18T16:04:23;63.95;51.03;77.34;;
64545;Laerm;50936;51.660;5.616;2022-12-18T16:06:51;62.55;50.99;79.13;;
64545;Laerm;50936;51.660;5.616;2022-12-18T16:09:40;65.12;55.13;74.14;;